createdAt,value
2023-11-22T00:01:40.683Z,13.60
2023-11-22T00:04:43.303Z,14.60
2023-11-22T00:07:45.574Z,14.73
2023-11-22T00:10:48.153Z,16.50
2023-11-22T00:13:50.566Z,15.43
2023-11-22T00:16:53.244Z,14.53
2023-11-22T00:19:55.250Z,14.50
2023-11-22T00:22:58.241Z,12.10
2023-11-22T00:26:00.365Z,16.03
2023-11-22T00:29:02.799Z,9.70
2023-11-22T00:32:06.131Z,15.03
2023-11-22T00:35:10.386Z,11.43
2023-11-22T00:38:13.367Z,11.77
2023-11-22T00:41:16.246Z,13.63
2023-11-22T00:44:19.663Z,11.77
2023-11-22T00:47:22.291Z,12.20
2023-11-22T00:50:24.358Z,12.23
2023-11-22T00:53:27.006Z,11.90
2023-11-22T00:56:29.132Z,10.67
2023-11-22T00:59:31.517Z,12.10
2023-11-22T01:02:34.056Z,10.97
2023-11-22T01:05:36.782Z,12.63
2023-11-22T01:08:39.082Z,11.93
2023-11-22T01:11:41.773Z,15.30
2023-11-22T01:14:44.091Z,13.73
2023-11-22T01:17:46.927Z,13.63
2023-11-22T01:20:49.222Z,12.90
2023-11-22T01:23:51.688Z,11.27
2023-11-22T01:26:54.006Z,12.13
2023-11-22T01:29:56.654Z,9.77
2023-11-22T01:32:58.673Z,11.00
2023-11-22T01:36:01.002Z,13.70
2023-11-22T01:39:04.861Z,14.17
2023-11-22T01:42:07.850Z,10.63
2023-11-22T01:45:11.527Z,9.50
2023-11-22T01:48:16.136Z,11.63
2023-11-22T01:51:18.565Z,12.23
2023-11-22T01:54:24.277Z,11.37
2023-11-22T01:57:26.330Z,10.30
2023-11-22T02:00:36.637Z,10.77
2023-11-22T02:03:39.067Z,11.60
2023-11-22T02:06:42.392Z,13.43
2023-11-22T02:09:44.274Z,10.50
2023-11-22T02:12:47.074Z,11.43
2023-11-22T02:15:49.147Z,9.80
2023-11-22T02:18:51.832Z,14.00
2023-11-22T02:21:54.152Z,15.43
2023-11-22T02:24:56.929Z,11.53
2023-11-22T02:27:59.187Z,12.80
2023-11-22T02:31:01.804Z,12.47
2023-11-22T02:34:04.110Z,12.60
2023-11-22T02:37:06.943Z,11.57
2023-11-22T02:40:20.384Z,14.93
2023-11-22T02:43:24.652Z,13.83
2023-11-22T02:46:27.570Z,12.27
2023-11-22T02:49:31.039Z,16.10
2023-11-22T02:52:33.498Z,12.13
2023-11-22T02:55:36.100Z,10.17
2023-11-22T02:58:38.436Z,12.53
2023-11-22T03:01:47.209Z,13.33
2023-11-22T03:04:49.641Z,13.53
2023-11-22T03:07:52.433Z,12.83
2023-11-22T03:10:55.365Z,12.47
2023-11-22T03:13:58.014Z,14.00
2023-11-22T03:17:00.342Z,10.63
2023-11-22T03:20:03.169Z,13.17
2023-11-22T03:23:06.213Z,12.40
2023-11-22T03:26:09.274Z,13.40
2023-11-22T03:29:11.588Z,12.50
2023-11-22T03:32:14.430Z,14.67
2023-11-22T03:35:18.271Z,17.73
2023-11-22T03:38:22.436Z,13.17
2023-11-22T03:41:24.605Z,15.63
2023-11-22T03:44:27.206Z,14.40
2023-11-22T03:47:29.455Z,12.13
2023-11-22T03:50:32.079Z,12.70
2023-11-22T03:53:34.160Z,12.70
2023-11-22T03:56:36.589Z,15.00
2023-11-22T03:59:38.895Z,16.37
2023-11-22T04:02:43.411Z,15.50
2023-11-22T04:05:45.866Z,16.90
2023-11-22T04:08:50.790Z,15.30
2023-11-22T04:11:53.315Z,16.00
2023-11-22T04:14:56.050Z,23.77
2023-11-22T04:17:58.411Z,24.03
2023-11-22T04:21:02.351Z,20.17
2023-11-22T04:24:04.645Z,30.80
2023-11-22T04:27:06.981Z,35.23
2023-11-22T04:30:14.496Z,20.77
2023-11-22T04:33:17.488Z,17.07
2023-11-22T04:36:21.483Z,18.63
2023-11-22T04:39:25.364Z,42.53
2023-11-22T04:42:28.944Z,35.47
2023-11-22T04:45:31.159Z,35.17
2023-11-22T04:48:33.287Z,38.10
2023-11-22T04:51:35.947Z,41.47
2023-11-22T04:54:37.982Z,37.40
2023-11-22T04:57:41.218Z,32.73
2023-11-22T05:00:43.407Z,25.80
2023-11-22T05:03:45.812Z,35.57
2023-11-22T05:06:47.832Z,24.27
2023-11-22T05:09:50.106Z,23.53
2023-11-22T05:12:52.190Z,23.77
2023-11-22T05:15:54.843Z,23.63
2023-11-22T05:18:56.848Z,26.93
2023-11-22T05:21:59.521Z,29.33
2023-11-22T05:25:01.815Z,25.00
2023-11-22T05:28:04.898Z,22.10
2023-11-22T05:31:08.079Z,34.50
2023-11-22T05:34:10.497Z,25.40
2023-11-22T05:37:13.482Z,32.27
2023-11-22T05:40:17.491Z,32.63
2023-11-22T05:43:24.019Z,34.30
2023-11-22T05:46:26.597Z,35.43
2023-11-22T05:49:29.884Z,26.37
2023-11-22T05:52:32.487Z,29.13
2023-11-22T05:55:34.488Z,25.93
2023-11-22T05:58:40.487Z,35.90
2023-11-22T06:01:42.463Z,33.10
2023-11-22T06:04:44.934Z,30.23
2023-11-22T06:07:47.274Z,22.37
2023-11-22T06:10:50.184Z,24.23
2023-11-22T06:13:52.920Z,22.07
2023-11-22T06:16:55.443Z,23.57
2023-11-22T06:19:57.633Z,24.50
2023-11-22T06:23:00.316Z,24.33
2023-11-22T06:26:02.642Z,26.90
2023-11-22T06:29:05.273Z,24.87
2023-11-22T06:32:08.069Z,24.30
2023-11-22T06:35:12.654Z,23.90
2023-11-22T06:38:15.078Z,19.07
2023-11-22T06:41:18.583Z,22.70
2023-11-22T06:44:20.759Z,21.70
2023-11-22T06:47:23.363Z,23.97
2023-11-22T06:50:25.870Z,30.70
2023-11-22T06:53:28.371Z,36.43
2023-11-22T06:56:30.777Z,31.83
2023-11-22T06:59:33.180Z,107.43
2023-11-22T07:02:37.463Z,42.30
2023-11-22T07:05:39.840Z,25.37
2023-11-22T07:08:42.360Z,30.33
2023-11-22T07:11:45.697Z,36.93
2023-11-22T07:14:49.880Z,49.30
2023-11-22T07:17:52.557Z,46.30
2023-11-22T07:20:56.297Z,27.40
2023-11-22T07:24:00.660Z,31.53
2023-11-22T07:27:04.005Z,28.30
2023-11-22T07:30:08.640Z,23.43
2023-11-22T07:33:12.195Z,26.87
2023-11-22T07:36:18.216Z,34.57
2023-11-22T07:39:21.524Z,27.37
2023-11-22T07:42:24.702Z,23.00
2023-11-22T07:45:26.859Z,28.80
2023-11-22T07:48:29.444Z,26.40
2023-11-22T07:51:31.456Z,26.03
2023-11-22T07:54:36.866Z,26.07
2023-11-22T07:57:42.715Z,21.33
2023-11-22T08:00:46.719Z,20.73
2023-11-22T08:03:49.298Z,22.70
2023-11-22T08:06:52.859Z,22.13
2023-11-22T08:09:55.272Z,26.97
2023-11-22T08:12:58.927Z,25.50
2023-11-22T08:16:00.898Z,30.27
2023-11-22T08:19:03.557Z,32.33
2023-11-22T08:22:05.493Z,31.47
2023-11-22T08:25:13.757Z,27.50
2023-11-22T08:28:15.819Z,27.83
2023-11-22T08:31:19.555Z,27.03
2023-11-22T08:34:21.851Z,29.20
2023-11-22T08:37:24.188Z,27.77
2023-11-22T08:40:27.467Z,23.17
2023-11-22T08:43:30.488Z,19.47
2023-11-22T08:46:32.954Z,16.97
2023-11-22T08:49:35.993Z,21.07
2023-11-22T08:52:39.766Z,18.60
2023-11-22T08:55:44.392Z,20.07
2023-11-22T08:58:46.680Z,22.00
2023-11-22T09:01:49.300Z,20.23
2023-11-22T09:04:51.554Z,18.73
2023-11-22T09:07:56.958Z,23.53
2023-11-22T09:10:59.323Z,18.73
2023-11-22T09:14:05.999Z,24.40
2023-11-22T09:17:11.289Z,20.63
2023-11-22T09:20:14.886Z,19.27
2023-11-22T09:23:18.155Z,20.57
2023-11-22T09:26:20.860Z,17.97
2023-11-22T09:29:23.090Z,15.63
2023-11-22T09:32:25.415Z,23.43
2023-11-22T09:35:28.017Z,14.53
2023-11-22T09:38:30.777Z,17.90
2023-11-22T09:41:32.806Z,14.27
2023-11-22T09:44:35.442Z,14.40
2023-11-22T09:47:38.458Z,22.40
2023-11-22T09:51:13.188Z,16.97
2023-11-22T09:54:16.572Z,19.37
2023-11-22T09:57:20.840Z,18.13
2023-11-22T10:00:25.463Z,17.30
2023-11-22T10:03:29.856Z,15.23
2023-11-22T10:06:35.723Z,24.67
2023-11-22T10:09:38.980Z,18.23
2023-11-22T10:12:44.165Z,41.73
2023-11-22T10:15:46.854Z,16.70
2023-11-22T10:18:50.472Z,20.80
2023-11-22T10:22:08.293Z,18.80
2023-11-22T10:25:12.181Z,34.80
2023-11-22T10:28:14.906Z,30.03
2023-11-22T10:31:18.204Z,18.60
2023-11-22T10:34:25.929Z,16.53
2023-11-22T10:37:28.766Z,16.23
2023-11-22T10:40:31.344Z,15.23
2023-11-22T10:43:36.217Z,38.70
2023-11-22T10:46:41.340Z,16.47
2023-11-22T10:49:44.703Z,20.00
2023-11-22T10:52:53.605Z,21.93
2023-11-22T10:56:08.121Z,23.77
2023-11-22T10:59:18.873Z,21.10
2023-11-22T11:02:24.866Z,17.43
2023-11-22T11:05:31.715Z,18.63
2023-11-22T11:08:35.323Z,37.40
2023-11-22T11:11:40.396Z,24.20
2023-11-22T11:14:43.393Z,32.03
2023-11-22T11:17:49.255Z,18.90
2023-11-22T11:20:56.722Z,22.10
2023-11-22T11:24:04.127Z,21.20
2023-11-22T11:27:08.357Z,14.00
2023-11-22T11:30:40.337Z,22.53
2023-11-22T11:33:57.382Z,25.80
2023-11-22T11:37:05.322Z,21.27
2023-11-22T11:40:27.868Z,21.73
2023-11-22T11:43:48.102Z,16.63
2023-11-22T11:46:53.237Z,26.27
2023-11-22T11:49:58.345Z,19.30
2023-11-22T11:53:00.722Z,24.47
2023-11-22T11:56:03.861Z,22.03
2023-11-22T11:59:06.235Z,18.70
2023-11-22T12:02:08.851Z,16.53
2023-11-22T12:05:11.240Z,33.50
2023-11-22T12:08:17.019Z,17.47
2023-11-22T12:11:19.739Z,16.17
2023-11-22T12:14:24.221Z,17.37
2023-11-22T12:17:28.913Z,18.83
2023-11-22T12:20:34.466Z,12.33
2023-11-22T12:23:36.712Z,11.77
2023-11-22T12:26:42.906Z,11.07
2023-11-22T12:29:47.541Z,13.53
2023-11-22T12:32:53.894Z,12.10
2023-11-22T12:35:56.126Z,12.97
2023-11-22T12:39:01.873Z,14.03
2023-11-22T12:42:09.579Z,16.53
2023-11-22T12:45:25.445Z,14.90
2023-11-22T12:48:31.453Z,13.20
2023-11-22T12:51:35.332Z,14.57
2023-11-22T12:54:37.390Z,53.00
2023-11-22T12:57:41.396Z,18.03
2023-11-22T13:00:46.281Z,22.00
2023-11-22T13:03:53.282Z,17.00
2023-11-22T13:06:55.504Z,14.60
2023-11-22T13:09:58.013Z,10.73
2023-11-22T13:13:02.188Z,12.03
2023-11-22T13:16:07.223Z,17.00
2023-11-22T13:19:10.508Z,14.73
2023-11-22T13:22:14.127Z,22.60
2023-11-22T13:25:20.327Z,23.10
2023-11-22T13:28:22.676Z,28.43
2023-11-22T13:31:25.561Z,16.43
2023-11-22T13:34:28.183Z,19.27
2023-11-22T13:37:30.443Z,23.43
2023-11-22T13:40:34.983Z,17.80
2023-11-22T13:43:36.983Z,23.30
2023-11-22T13:46:39.670Z,27.87
2023-11-22T13:49:43.732Z,18.87
2023-11-22T13:52:53.966Z,19.87
2023-11-22T13:55:56.720Z,22.67
2023-11-22T13:59:00.664Z,19.83
2023-11-22T14:02:02.632Z,25.47
2023-11-22T14:05:08.840Z,22.93
2023-11-22T14:08:11.116Z,25.47
2023-11-22T14:11:14.292Z,21.33
2023-11-22T14:14:20.426Z,18.90
2023-11-22T14:17:22.901Z,26.10
2023-11-22T14:20:26.044Z,28.13
2023-11-22T14:23:28.412Z,25.67
2023-11-22T14:26:30.475Z,21.80
2023-11-22T14:29:34.522Z,22.30
2023-11-22T14:32:36.708Z,19.37
2023-11-22T14:35:39.301Z,38.20
2023-11-22T14:38:43.808Z,34.40
2023-11-22T14:41:46.969Z,35.67
2023-11-22T14:44:49.751Z,29.70
2023-11-22T14:47:53.308Z,30.17
2023-11-22T14:50:55.872Z,31.10
2023-11-22T14:53:58.207Z,51.07
2023-11-22T14:57:03.148Z,51.03
2023-11-22T15:00:10.853Z,49.50
2023-11-22T15:03:13.291Z,38.03
2023-11-22T15:06:16.771Z,48.37
2023-11-22T15:09:19.476Z,201.97
2023-11-22T15:12:21.810Z,194.07
2023-11-22T15:15:26.732Z,130.10
2023-11-22T15:18:29.447Z,93.90
2023-11-22T15:21:31.559Z,72.60
2023-11-22T15:24:34.267Z,50.93
2023-11-22T15:27:37.525Z,47.83
2023-11-22T15:30:39.909Z,48.03
2023-11-22T15:33:41.942Z,51.50
2023-11-22T15:36:44.322Z,57.23
2023-11-22T15:39:46.401Z,75.77
2023-11-22T15:42:48.681Z,72.57
2023-11-22T15:45:50.958Z,75.60
2023-11-22T15:48:53.536Z,72.33
2023-11-22T15:51:55.498Z,75.67
2023-11-22T15:54:58.436Z,73.80
2023-11-22T15:58:00.316Z,77.87
2023-11-22T16:01:04.983Z,70.37
2023-11-22T16:04:07.319Z,78.83
2023-11-22T16:07:10.605Z,85.60
2023-11-22T16:10:13.091Z,79.27
2023-11-22T16:13:15.717Z,65.63
2023-11-22T16:16:19.338Z,51.93
2023-11-22T16:19:22.143Z,54.07
2023-11-22T16:22:25.331Z,121.70
2023-11-22T16:25:28.514Z,176.27
2023-11-22T16:28:31.962Z,166.73
2023-11-22T16:31:34.505Z,124.20
2023-11-22T16:34:36.849Z,157.07
2023-11-22T16:37:39.860Z,151.90
2023-11-22T16:40:41.986Z,125.30
2023-11-22T16:43:44.607Z,130.17
2023-11-22T16:46:50.901Z,106.27
2023-11-22T16:49:53.663Z,112.70
2023-11-22T16:52:56.035Z,94.83
2023-11-22T16:55:58.978Z,101.60
2023-11-22T16:59:01.278Z,102.70
2023-11-22T17:02:03.903Z,102.97
2023-11-22T17:05:06.608Z,115.50
2023-11-22T17:08:08.988Z,136.90
2023-11-22T17:11:11.280Z,144.63
2023-11-22T17:14:14.144Z,165.00
2023-11-22T17:17:17.058Z,178.77
2023-11-22T17:20:19.419Z,201.67
2023-11-22T17:23:22.702Z,161.33
2023-11-22T17:26:25.240Z,149.43
2023-11-22T17:29:27.336Z,160.77
2023-11-22T17:32:29.700Z,159.50
2023-11-22T17:35:32.322Z,178.20
2023-11-22T17:38:34.636Z,163.17
2023-11-22T17:41:36.951Z,158.43
2023-11-22T17:44:39.572Z,123.07
2023-11-22T17:47:41.951Z,121.50
2023-11-22T17:50:46.019Z,277.87
2023-11-22T17:53:49.012Z,474.67
2023-11-22T17:56:52.161Z,585.07
2023-11-22T17:59:54.669Z,515.03
2023-11-22T18:02:57.472Z,430.40
2023-11-22T18:05:59.816Z,203.70
2023-11-22T18:09:02.153Z,166.13
2023-11-22T18:12:04.970Z,155.80
2023-11-22T18:15:08.355Z,153.40
2023-11-22T18:18:11.415Z,137.93
2023-11-22T18:21:16.679Z,145.63
2023-11-22T18:24:22.490Z,130.33
2023-11-22T18:27:26.109Z,199.33
2023-11-22T18:30:28.116Z,278.77
2023-11-22T18:33:30.594Z,193.50
2023-11-22T18:36:33.219Z,124.47
2023-11-22T18:39:36.926Z,78.63
2023-11-22T18:42:40.080Z,59.30
2023-11-22T18:45:43.473Z,59.90
2023-11-22T18:48:45.791Z,59.43
2023-11-22T18:51:48.602Z,57.87
2023-11-22T18:54:50.905Z,63.23
2023-11-22T18:57:54.377Z,74.97
2023-11-22T19:00:56.796Z,69.13
2023-11-22T19:03:59.463Z,77.23
2023-11-22T19:07:01.789Z,89.50
2023-11-22T19:10:04.325Z,76.83
2023-11-22T19:13:07.569Z,70.37
2023-11-22T19:16:10.132Z,67.70
2023-11-22T19:19:12.164Z,66.13
2023-11-22T19:22:15.542Z,64.73
2023-11-22T19:25:18.921Z,64.43
2023-11-22T19:28:21.557Z,69.67
2023-11-22T19:31:24.833Z,75.77
2023-11-22T19:34:27.404Z,59.43
2023-11-22T19:37:29.732Z,58.83
2023-11-22T19:40:36.015Z,54.50
2023-11-22T19:43:38.362Z,56.63
2023-11-22T19:46:43.331Z,63.77
2023-11-22T19:49:46.170Z,49.10
2023-11-22T19:52:48.510Z,44.83
2023-11-22T19:55:50.614Z,47.50
2023-11-22T19:58:53.317Z,46.53
2023-11-22T20:01:55.420Z,44.00
2023-11-22T20:04:58.214Z,46.37
2023-11-22T20:08:01.659Z,56.37
2023-11-22T20:11:05.240Z,44.00
2023-11-22T20:14:07.637Z,49.23
2023-11-22T20:17:13.371Z,48.87
2023-11-22T20:20:15.870Z,46.17
2023-11-22T20:23:20.712Z,69.97
2023-11-22T20:26:23.847Z,65.30
2023-11-22T20:29:26.284Z,73.10
2023-11-22T20:32:28.279Z,76.43
2023-11-22T20:35:30.897Z,90.90
2023-11-22T20:38:34.329Z,119.87
2023-11-22T20:41:36.786Z,110.03
2023-11-22T20:44:39.090Z,102.70
2023-11-22T20:47:43.314Z,100.43
2023-11-22T20:50:45.761Z,73.97
2023-11-22T20:53:48.364Z,72.20
2023-11-22T20:56:51.271Z,81.43
2023-11-22T20:59:54.300Z,118.30
2023-11-22T21:02:56.732Z,152.40
2023-11-22T21:06:00.292Z,101.93
2023-11-22T21:09:04.751Z,66.93
2023-11-22T21:12:07.697Z,58.43
2023-11-22T21:15:10.446Z,51.67
2023-11-22T21:18:15.564Z,59.80
2023-11-22T21:21:18.211Z,51.43
2023-11-22T21:24:20.861Z,54.10
2023-11-22T21:27:23.204Z,50.93
2023-11-22T21:30:25.794Z,56.27
2023-11-22T21:33:30.122Z,68.63
2023-11-22T21:36:34.417Z,119.43
2023-11-22T21:39:40.524Z,112.80
2023-11-22T21:42:43.207Z,57.83
2023-11-22T21:45:45.635Z,46.00
2023-11-22T21:48:48.499Z,43.57
2023-11-22T21:51:51.939Z,43.83
2023-11-22T21:54:57.499Z,40.27
2023-11-22T21:57:59.805Z,37.17
2023-11-22T22:01:02.290Z,36.70
2023-11-22T22:04:05.878Z,35.37
2023-11-22T22:07:08.822Z,38.83
2023-11-22T22:10:12.071Z,32.83
2023-11-22T22:13:14.579Z,45.87
2023-11-22T22:16:16.893Z,48.10
2023-11-22T22:19:19.568Z,38.97
2023-11-22T22:22:22.626Z,39.43
2023-11-22T22:25:25.498Z,40.53
2023-11-22T22:28:30.529Z,41.00
2023-11-22T22:31:33.172Z,32.23
2023-11-22T22:34:35.516Z,32.03
2023-11-22T22:37:38.960Z,35.67
2023-11-22T22:40:41.681Z,35.73
2023-11-22T22:43:44.278Z,30.90
2023-11-22T22:46:47.626Z,31.37
2023-11-22T22:49:51.434Z,28.63
2023-11-22T22:52:54.187Z,30.37
2023-11-22T22:55:57.140Z,28.80
2023-11-22T22:58:59.425Z,29.20
2023-11-22T23:02:04.692Z,29.90
2023-11-22T23:05:24.835Z,29.00
2023-11-22T23:08:29.218Z,28.53
2023-11-22T23:11:31.221Z,32.07
2023-11-22T23:14:33.991Z,28.67
2023-11-22T23:17:38.060Z,25.77
2023-11-22T23:20:48.940Z,25.00
2023-11-22T23:23:53.279Z,28.43
2023-11-22T23:26:55.948Z,26.67
2023-11-22T23:29:58.288Z,30.43
2023-11-22T23:33:01.141Z,26.90
2023-11-22T23:36:07.342Z,29.80
2023-11-22T23:39:12.076Z,26.30
2023-11-22T23:42:15.321Z,26.30
2023-11-22T23:45:20.717Z,25.13
2023-11-22T23:48:23.079Z,26.07
2023-11-22T23:51:25.778Z,24.87
2023-11-22T23:54:28.067Z,36.93
2023-11-22T23:57:32.158Z,26.17
